Aviation Digital Data Service (ADDS)

Output produced by METARs form (2017 UTC 18 April 2021)
found at http://www.aviationweather.gov/metar/data/
 
METAR text: KHSE 181951Z AUTO 11006KT 10SM OVC065 19/08 A2986 RMK AO2 SLP112 T01890083
Conditions at: KHSE (HATTERAS/MITCHEL, NC, US) observed 1951 UTC 18 April 2021
Temperature: 18.9°C (66°F)
Dewpoint: 8.3°C (47°F) [RH = 50%]
Pressure (altimeter): 29.86 inches Hg (1011.3 mb)
[Sea-level pressure: 1011.2 mb]
Winds: from the ESE (110 degrees) at 7 MPH (6 knots; 3.1 m/s)
Visibility: 10 or more miles (16+ km)
Ceiling: 6500 feet AGL
Clouds: overcast cloud deck at 6500 feet AGL
Weather: automated observation with no human augmentation;
there may or may not be significant weather present at this time

METAR text: KHSE 181851Z AUTO 12010KT 10SM BKN065 22/09 A2988 RMK AO2 SLP117 T02170094
Conditions at: KHSE (HATTERAS/MITCHEL, NC, US) observed 1851 UTC 18 April 2021
Temperature: 21.7°C (71°F)
Dewpoint: 9.4°C (49°F) [RH = 45%]
Pressure (altimeter): 29.88 inches Hg (1011.9 mb)
[Sea-level pressure: 1011.7 mb]
Winds: from the ESE (120 degrees) at 12 MPH (10 knots; 5.1 m/s)
Visibility: 10 or more miles (16+ km)
Ceiling: 6500 feet AGL
Clouds: broken clouds at 6500 feet AGL
Weather: automated observation with no human augmentation;
there may or may not be significant weather present at this time